sensor_id;sensor_type;location;lat;lon;timestamp;pressure;altitude;pressure_sealevel;temperature
18713;BMP280;9485;49.386;8.674;2023-02-26T00:03:51;100098.19;;;2.35
18713;BMP280;9485;49.386;8.674;2023-02-26T00:09:12;100092.72;;;2.31
18713;BMP280;9485;49.386;8.674;2023-02-26T00:14:33;100104.19;;;2.33
18713;BMP280;9485;49.386;8.674;2023-02-26T00:19:56;100097.06;;;2.32
18713;BMP280;9485;49.386;8.674;2023-02-26T00:25:17;100107.09;;;2.30
18713;BMP280;9485;49.386;8.674;2023-02-26T00:30:39;100121.16;;;2.26
18713;BMP280;9485;49.386;8.674;2023-02-26T00:36:18;100122.16;;;2.20
18713;BMP280;9485;49.386;8.674;2023-02-26T00:41:40;100121.94;;;2.15
18713;BMP280;9485;49.386;8.674;2023-02-26T00:47:08;100119.50;;;2.04
18713;BMP280;9485;49.386;8.674;2023-02-26T00:52:44;100121.94;;;2.02
18713;BMP280;9485;49.386;8.674;2023-02-26T00:58:06;100123.38;;;1.94
18713;BMP280;9485;49.386;8.674;2023-02-26T01:03:27;100131.41;;;1.92
18713;BMP280;9485;49.386;8.674;2023-02-26T01:09:01;100127.84;;;1.92
18713;BMP280;9485;49.386;8.674;2023-02-26T01:14:25;100119.16;;;1.90
18713;BMP280;9485;49.386;8.674;2023-02-26T01:19:52;100127.09;;;1.91
18713;BMP280;9485;49.386;8.674;2023-02-26T01:25:22;100121.41;;;1.95
18713;BMP280;9485;49.386;8.674;2023-02-26T01:30:44;100115.38;;;1.96
18713;BMP280;9485;49.386;8.674;2023-02-26T01:36:09;100125.28;;;1.97
18713;BMP280;9485;49.386;8.674;2023-02-26T01:41:38;100120.16;;;1.96
18713;BMP280;9485;49.386;8.674;2023-02-26T01:47:15;100117.47;;;1.92
18713;BMP280;9485;49.386;8.674;2023-02-26T01:53:16;100121.28;;;1.86
18713;BMP280;9485;49.386;8.674;2023-02-26T01:58:39;100123.50;;;1.78
18713;BMP280;9485;49.386;8.674;2023-02-26T02:04:01;100097.56;;;1.56
18713;BMP280;9485;49.386;8.674;2023-02-26T02:09:22;100123.38;;;1.69
18713;BMP280;9485;49.386;8.674;2023-02-26T02:15:03;100131.50;;;1.64
18713;BMP280;9485;49.386;8.674;2023-02-26T02:20:59;100112.88;;;1.61
18713;BMP280;9485;49.386;8.674;2023-02-26T02:26:58;100134.03;;;1.58
18713;BMP280;9485;49.386;8.674;2023-02-26T02:32:24;100137.72;;;1.55
18713;BMP280;9485;49.386;8.674;2023-02-26T02:37:54;100148.06;;;1.55
18713;BMP280;9485;49.386;8.674;2023-02-26T02:43:20;100146.94;;;1.52
18713;BMP280;9485;49.386;8.674;2023-02-26T02:48:48;100160.50;;;1.50
18713;BMP280;9485;49.386;8.674;2023-02-26T02:54:13;100158.63;;;1.48
18713;BMP280;9485;49.386;8.674;2023-02-26T02:59:41;100161.16;;;1.42
18713;BMP280;9485;49.386;8.674;2023-02-26T03:05:06;100167.63;;;1.39
18713;BMP280;9485;49.386;8.674;2023-02-26T03:10:27;100176.06;;;1.36
18713;BMP280;9485;49.386;8.674;2023-02-26T03:16:07;100172.94;;;1.34
18713;BMP280;9485;49.386;8.674;2023-02-26T03:21:46;100180.47;;;1.33
18713;BMP280;9485;49.386;8.674;2023-02-26T03:27:30;100190.41;;;1.34
18713;BMP280;9485;49.386;8.674;2023-02-26T03:33:01;100189.19;;;1.35
18713;BMP280;9485;49.386;8.674;2023-02-26T03:38:34;100193.06;;;1.38
18713;BMP280;9485;49.386;8.674;2023-02-26T03:44:04;100201.00;;;1.39
18713;BMP280;9485;49.386;8.674;2023-02-26T03:49:29;100202.22;;;1.38
18713;BMP280;9485;49.386;8.674;2023-02-26T03:54:58;100213.09;;;1.33
18713;BMP280;9485;49.386;8.674;2023-02-26T04:00:56;100212.06;;;1.27
18713;BMP280;9485;49.386;8.674;2023-02-26T04:06:23;100217.38;;;1.21
18713;BMP280;9485;49.386;8.674;2023-02-26T04:11:48;100229.50;;;1.15
18713;BMP280;9485;49.386;8.674;2023-02-26T04:17:09;100231.66;;;1.07
18713;BMP280;9485;49.386;8.674;2023-02-26T04:22:30;100240.97;;;1.01
18713;BMP280;9485;49.386;8.674;2023-02-26T04:27:52;100233.84;;;1.00
18713;BMP280;9485;49.386;8.674;2023-02-26T04:33:14;100237.84;;;0.99
18713;BMP280;9485;49.386;8.674;2023-02-26T04:38:34;100252.28;;;0.94
18713;BMP280;9485;49.386;8.674;2023-02-26T04:43:57;100254.00;;;0.88
18713;BMP280;9485;49.386;8.674;2023-02-26T04:49:21;100263.56;;;0.87
18713;BMP280;9485;49.386;8.674;2023-02-26T04:54:42;100266.78;;;0.85
18713;BMP280;9485;49.386;8.674;2023-02-26T05:00:10;100267.97;;;0.84
18713;BMP280;9485;49.386;8.674;2023-02-26T05:05:32;100270.34;;;0.86
18713;BMP280;9485;49.386;8.674;2023-02-26T05:10:54;100273.13;;;0.86
18713;BMP280;9485;49.386;8.674;2023-02-26T05:16:15;100280.66;;;0.85
18713;BMP280;9485;49.386;8.674;2023-02-26T05:21:36;100280.34;;;0.83
18713;BMP280;9485;49.386;8.674;2023-02-26T05:26:57;100286.75;;;0.80
18713;BMP280;9485;49.386;8.674;2023-02-26T05:32:19;100292.41;;;0.77
18713;BMP280;9485;49.386;8.674;2023-02-26T05:37:39;100297.59;;;0.75
18713;BMP280;9485;49.386;8.674;2023-02-26T05:43:00;100313.16;;;0.73
18713;BMP280;9485;49.386;8.674;2023-02-26T05:48:23;100313.06;;;0.76
18713;BMP280;9485;49.386;8.674;2023-02-26T05:53:44;100317.06;;;0.75
18713;BMP280;9485;49.386;8.674;2023-02-26T05:59:05;100315.94;;;0.73
18713;BMP280;9485;49.386;8.674;2023-02-26T06:04:28;100331.41;;;0.73
18713;BMP280;9485;49.386;8.674;2023-02-26T06:09:49;100338.25;;;0.69
18713;BMP280;9485;49.386;8.674;2023-02-26T06:15:11;100358.13;;;0.68
18713;BMP280;9485;49.386;8.674;2023-02-26T06:20:33;100358.91;;;0.68
18713;BMP280;9485;49.386;8.674;2023-02-26T06:25:54;100347.78;;;0.52
18713;BMP280;9485;49.386;8.674;2023-02-26T06:31:14;100375.16;;;0.70
18713;BMP280;9485;49.386;8.674;2023-02-26T06:36:36;100383.00;;;0.74
18713;BMP280;9485;49.386;8.674;2023-02-26T06:41:58;100403.94;;;0.95
18713;BMP280;9485;49.386;8.674;2023-02-26T06:47:18;100416.06;;;1.20
18713;BMP280;9485;49.386;8.674;2023-02-26T06:52:41;100429.81;;;1.43
18713;BMP280;9485;49.386;8.674;2023-02-26T06:58:06;100432.06;;;1.64
18713;BMP280;9485;49.386;8.674;2023-02-26T07:03:28;100440.66;;;1.85
18713;BMP280;9485;49.386;8.674;2023-02-26T07:08:51;100438.69;;;2.14
18713;BMP280;9485;49.386;8.674;2023-02-26T07:14:15;100438.72;;;2.42
18713;BMP280;9485;49.386;8.674;2023-02-26T07:19:36;100433.28;;;2.64
18713;BMP280;9485;49.386;8.674;2023-02-26T07:24:59;100445.41;;;2.98
18713;BMP280;9485;49.386;8.674;2023-02-26T07:30:21;100444.09;;;3.15
18713;BMP280;9485;49.386;8.674;2023-02-26T07:35:42;100453.03;;;3.22
18713;BMP280;9485;49.386;8.674;2023-02-26T07:41:04;100466.97;;;3.35
18713;BMP280;9485;49.386;8.674;2023-02-26T07:46:27;100477.69;;;3.61
18713;BMP280;9485;49.386;8.674;2023-02-26T07:51:48;100470.19;;;3.83
18713;BMP280;9485;49.386;8.674;2023-02-26T07:57:12;100481.00;;;3.93
18713;BMP280;9485;49.386;8.674;2023-02-26T08:02:34;100492.09;;;4.18
18713;BMP280;9485;49.386;8.674;2023-02-26T08:07:55;100491.19;;;4.34
18713;BMP280;9485;49.386;8.674;2023-02-26T08:13:17;100493.38;;;4.94
18713;BMP280;9485;49.386;8.674;2023-02-26T08:18:39;100486.16;;;5.75
18713;BMP280;9485;49.386;8.674;2023-02-26T08:24:02;100497.09;;;6.48
18713;BMP280;9485;49.386;8.674;2023-02-26T08:29:25;100494.22;;;7.10
18713;BMP280;9485;49.386;8.674;2023-02-26T08:34:46;100498.09;;;8.04
18713;BMP280;9485;49.386;8.674;2023-02-26T08:40:10;100502.28;;;8.93
18713;BMP280;9485;49.386;8.674;2023-02-26T08:45:32;100496.31;;;10.06
18713;BMP280;9485;49.386;8.674;2023-02-26T08:50:53;100518.88;;;10.80
18713;BMP280;9485;49.386;8.674;2023-02-26T08:56:14;100521.00;;;11.11
18713;BMP280;9485;49.386;8.674;2023-02-26T09:01:37;100528.09;;;11.26
18713;BMP280;9485;49.386;8.674;2023-02-26T09:06:59;100533.09;;;11.62
18713;BMP280;9485;49.386;8.674;2023-02-26T09:12:22;100546.91;;;11.80
18713;BMP280;9485;49.386;8.674;2023-02-26T09:17:44;100546.22;;;11.90
18713;BMP280;9485;49.386;8.674;2023-02-26T09:23:06;100553.88;;;13.04
18713;BMP280;9485;49.386;8.674;2023-02-26T09:28:28;100563.25;;;13.43
18713;BMP280;9485;49.386;8.674;2023-02-26T09:33:50;100564.47;;;13.14
18713;BMP280;9485;49.386;8.674;2023-02-26T09:39:12;100567.94;;;14.49
18713;BMP280;9485;49.386;8.674;2023-02-26T09:44:40;100559.38;;;15.74
18713;BMP280;9485;49.386;8.674;2023-02-26T09:50:10;100574.00;;;17.19
18713;BMP280;9485;49.386;8.674;2023-02-26T09:55:39;100586.38;;;18.13
18713;BMP280;9485;49.386;8.674;2023-02-26T10:01:10;100591.63;;;19.10
18713;BMP280;9485;49.386;8.674;2023-02-26T10:06:37;100600.69;;;19.73
18713;BMP280;9485;49.386;8.674;2023-02-26T10:12:07;100609.84;;;20.05
18713;BMP280;9485;49.386;8.674;2023-02-26T10:17:39;100615.69;;;20.53
18713;BMP280;9485;49.386;8.674;2023-02-26T10:23:15;100620.88;;;20.75
18713;BMP280;9485;49.386;8.674;2023-02-26T10:28:52;100626.44;;;20.60
18713;BMP280;9485;49.386;8.674;2023-02-26T10:34:24;100625.72;;;20.06
18713;BMP280;9485;49.386;8.674;2023-02-26T10:39:54;100619.25;;;19.08
18713;BMP280;9485;49.386;8.674;2023-02-26T10:45:32;100618.59;;;18.89
18713;BMP280;9485;49.386;8.674;2023-02-26T10:51:23;100635.91;;;19.22
18713;BMP280;9485;49.386;8.674;2023-02-26T10:56:46;100620.78;;;18.96
18713;BMP280;9485;49.386;8.674;2023-02-26T11:02:35;100623.00;;;18.90
18713;BMP280;9485;49.386;8.674;2023-02-26T11:08:01;100641.03;;;17.54
18713;BMP280;9485;49.386;8.674;2023-02-26T11:13:28;100643.91;;;15.49
18713;BMP280;9485;49.386;8.674;2023-02-26T11:18:53;100646.38;;;13.65
18713;BMP280;9485;49.386;8.674;2023-02-26T11:24:25;100656.53;;;13.19
18713;BMP280;9485;49.386;8.674;2023-02-26T11:29:57;100632.34;;;12.81
18713;BMP280;9485;49.386;8.674;2023-02-26T11:35:22;100628.66;;;13.12
18713;BMP280;9485;49.386;8.674;2023-02-26T11:40:47;100627.81;;;12.59
18713;BMP280;9485;49.386;8.674;2023-02-26T11:46:12;100646.69;;;12.05
18713;BMP280;9485;49.386;8.674;2023-02-26T11:51:35;100650.72;;;11.48
18713;BMP280;9485;49.386;8.674;2023-02-26T11:57:04;100651.34;;;10.78
18713;BMP280;9485;49.386;8.674;2023-02-26T12:02:33;100654.38;;;10.41
18713;BMP280;9485;49.386;8.674;2023-02-26T12:07:54;100652.41;;;10.32
18713;BMP280;9485;49.386;8.674;2023-02-26T12:13:23;100662.19;;;10.31
18713;BMP280;9485;49.386;8.674;2023-02-26T12:19:00;100648.03;;;11.39
18713;BMP280;9485;49.386;8.674;2023-02-26T12:24:53;100648.03;;;13.19
18713;BMP280;9485;49.386;8.674;2023-02-26T12:30:51;100639.03;;;13.26
18713;BMP280;9485;49.386;8.674;2023-02-26T12:36:32;100637.41;;;12.36
18713;BMP280;9485;49.386;8.674;2023-02-26T12:42:12;100617.75;;;13.68
18713;BMP280;9485;49.386;8.674;2023-02-26T12:47:58;100618.00;;;14.80
18713;BMP280;9485;49.386;8.674;2023-02-26T12:53:45;100631.75;;;14.48
18713;BMP280;9485;49.386;8.674;2023-02-26T12:59:31;100645.94;;;14.16
18713;BMP280;9485;49.386;8.674;2023-02-26T13:05:18;100647.53;;;13.26
18713;BMP280;9485;49.386;8.674;2023-02-26T13:11:00;100658.16;;;12.53
18713;BMP280;9485;49.386;8.674;2023-02-26T13:16:42;100662.59;;;11.52
18713;BMP280;9485;49.386;8.674;2023-02-26T13:22:16;100659.56;;;10.96
18713;BMP280;9485;49.386;8.674;2023-02-26T13:27:44;100662.78;;;10.21
18713;BMP280;9485;49.386;8.674;2023-02-26T13:33:15;100656.13;;;9.80
18713;BMP280;9485;49.386;8.674;2023-02-26T13:38:52;100654.91;;;9.44
18713;BMP280;9485;49.386;8.674;2023-02-26T13:44:37;100666.41;;;9.17
18713;BMP280;9485;49.386;8.674;2023-02-26T13:50:20;100660.53;;;9.29
18713;BMP280;9485;49.386;8.674;2023-02-26T13:55:45;100661.38;;;9.87
18713;BMP280;9485;49.386;8.674;2023-02-26T14:01:14;100650.00;;;10.40
18713;BMP280;9485;49.386;8.674;2023-02-26T14:06:40;100650.94;;;10.51
18713;BMP280;9485;49.386;8.674;2023-02-26T14:12:14;100651.63;;;10.46
18713;BMP280;9485;49.386;8.674;2023-02-26T14:17:49;100658.38;;;10.34
18713;BMP280;9485;49.386;8.674;2023-02-26T14:23:34;100666.16;;;10.25
18713;BMP280;9485;49.386;8.674;2023-02-26T14:29:11;100680.47;;;10.21
18713;BMP280;9485;49.386;8.674;2023-02-26T14:34:45;100690.28;;;10.11
18713;BMP280;9485;49.386;8.674;2023-02-26T14:40:16;100674.41;;;9.85
18713;BMP280;9485;49.386;8.674;2023-02-26T14:45:41;100685.78;;;9.76
18713;BMP280;9485;49.386;8.674;2023-02-26T14:51:21;100691.41;;;9.76
18713;BMP280;9485;49.386;8.674;2023-02-26T14:57:00;100706.16;;;9.57
18713;BMP280;9485;49.386;8.674;2023-02-26T15:02:36;100708.06;;;9.36
18713;BMP280;9485;49.386;8.674;2023-02-26T15:08:42;100693.25;;;9.03
18713;BMP280;9485;49.386;8.674;2023-02-26T15:14:39;100709.38;;;8.80
18713;BMP280;9485;49.386;8.674;2023-02-26T15:20:15;100722.00;;;8.52
18713;BMP280;9485;49.386;8.674;2023-02-26T15:25:46;100727.09;;;8.30
18713;BMP280;9485;49.386;8.674;2023-02-26T15:31:10;100727.41;;;8.05
18713;BMP280;9485;49.386;8.674;2023-02-26T15:36:32;100742.13;;;7.91
18713;BMP280;9485;49.386;8.674;2023-02-26T15:41:55;100749.63;;;7.94
18713;BMP280;9485;49.386;8.674;2023-02-26T15:47:18;100749.59;;;8.12
18713;BMP280;9485;49.386;8.674;2023-02-26T15:52:39;100724.47;;;8.18
18713;BMP280;9485;49.386;8.674;2023-02-26T15:58:04;100757.94;;;8.57
18713;BMP280;9485;49.386;8.674;2023-02-26T16:03:29;100750.66;;;8.41
18713;BMP280;9485;49.386;8.674;2023-02-26T16:08:51;100763.19;;;8.22
18713;BMP280;9485;49.386;8.674;2023-02-26T16:14:20;100752.78;;;7.96
18713;BMP280;9485;49.386;8.674;2023-02-26T16:19:46;100778.88;;;7.79
18713;BMP280;9485;49.386;8.674;2023-02-26T16:25:16;100769.66;;;7.60
18713;BMP280;9485;49.386;8.674;2023-02-26T16:30:41;100775.84;;;7.38
18713;BMP280;9485;49.386;8.674;2023-02-26T16:36:14;100789.41;;;7.21
18713;BMP280;9485;49.386;8.674;2023-02-26T16:41:39;100807.31;;;7.06
18713;BMP280;9485;49.386;8.674;2023-02-26T16:47:02;100806.03;;;6.98
18713;BMP280;9485;49.386;8.674;2023-02-26T16:52:25;100808.81;;;6.89
18713;BMP280;9485;49.386;8.674;2023-02-26T16:57:48;100828.28;;;6.83
18713;BMP280;9485;49.386;8.674;2023-02-26T17:03:14;100836.81;;;6.80
18713;BMP280;9485;49.386;8.674;2023-02-26T17:08:44;100842.09;;;6.69
18713;BMP280;9485;49.386;8.674;2023-02-26T17:14:15;100854.09;;;6.69
18713;BMP280;9485;49.386;8.674;2023-02-26T17:19:42;100855.50;;;6.65
18713;BMP280;9485;49.386;8.674;2023-02-26T17:25:04;100863.84;;;6.56
18713;BMP280;9485;49.386;8.674;2023-02-26T17:30:25;100870.75;;;6.43
18713;BMP280;9485;49.386;8.674;2023-02-26T17:35:54;100881.28;;;6.30
18713;BMP280;9485;49.386;8.674;2023-02-26T17:41:17;100880.53;;;6.17
18713;BMP280;9485;49.386;8.674;2023-02-26T17:46:38;100898.09;;;6.08
18713;BMP280;9485;49.386;8.674;2023-02-26T17:52:00;100896.44;;;5.98
18713;BMP280;9485;49.386;8.674;2023-02-26T17:57:23;100916.88;;;5.87
18713;BMP280;9485;49.386;8.674;2023-02-26T18:02:45;100917.69;;;5.75
18713;BMP280;9485;49.386;8.674;2023-02-26T18:08:18;100921.94;;;5.67
18713;BMP280;9485;49.386;8.674;2023-02-26T18:13:40;100932.59;;;5.59
18713;BMP280;9485;49.386;8.674;2023-02-26T18:19:01;100929.72;;;5.50
18713;BMP280;9485;49.386;8.674;2023-02-26T18:24:23;100932.75;;;5.43
18713;BMP280;9485;49.386;8.674;2023-02-26T18:29:45;100934.50;;;5.37
18713;BMP280;9485;49.386;8.674;2023-02-26T18:35:07;100940.69;;;5.32
18713;BMP280;9485;49.386;8.674;2023-02-26T18:40:29;100942.94;;;5.25
18713;BMP280;9485;49.386;8.674;2023-02-26T18:45:50;100946.28;;;5.20
18713;BMP280;9485;49.386;8.674;2023-02-26T18:51:11;100946.38;;;5.17
18713;BMP280;9485;49.386;8.674;2023-02-26T18:56:33;100929.47;;;4.95
18713;BMP280;9485;49.386;8.674;2023-02-26T19:01:54;100955.66;;;5.01
18713;BMP280;9485;49.386;8.674;2023-02-26T19:07:15;100958.56;;;4.98
18713;BMP280;9485;49.386;8.674;2023-02-26T19:12:37;100965.63;;;4.90
18713;BMP280;9485;49.386;8.674;2023-02-26T19:17:58;100955.06;;;4.81
18713;BMP280;9485;49.386;8.674;2023-02-26T19:23:18;100967.25;;;4.75
18713;BMP280;9485;49.386;8.674;2023-02-26T19:28:40;100976.09;;;4.73
18713;BMP280;9485;49.386;8.674;2023-02-26T19:34:02;100987.84;;;4.68
18713;BMP280;9485;49.386;8.674;2023-02-26T19:39:23;100987.03;;;4.68
18713;BMP280;9485;49.386;8.674;2023-02-26T19:44:46;101002.34;;;4.63
18713;BMP280;9485;49.386;8.674;2023-02-26T19:50:09;100994.84;;;4.60
18713;BMP280;9485;49.386;8.674;2023-02-26T19:55:30;101008.16;;;4.56
18713;BMP280;9485;49.386;8.674;2023-02-26T20:00:53;101005.53;;;4.49
18713;BMP280;9485;49.386;8.674;2023-02-26T20:06:14;101012.03;;;4.46
18713;BMP280;9485;49.386;8.674;2023-02-26T20:11:34;101020.06;;;4.44
18713;BMP280;9485;49.386;8.674;2023-02-26T20:16:57;101026.22;;;4.40
18713;BMP280;9485;49.386;8.674;2023-02-26T20:22:18;101029.97;;;4.33
18713;BMP280;9485;49.386;8.674;2023-02-26T20:27:42;101034.16;;;4.25
18713;BMP280;9485;49.386;8.674;2023-02-26T20:33:04;101025.53;;;4.20
18713;BMP280;9485;49.386;8.674;2023-02-26T20:38:27;101027.63;;;4.16
18713;BMP280;9485;49.386;8.674;2023-02-26T20:43:47;101042.50;;;4.13
18713;BMP280;9485;49.386;8.674;2023-02-26T20:49:10;101034.19;;;4.09
18713;BMP280;9485;49.386;8.674;2023-02-26T20:54:30;101042.69;;;4.06
18713;BMP280;9485;49.386;8.674;2023-02-26T20:59:51;101047.22;;;4.00
18713;BMP280;9485;49.386;8.674;2023-02-26T21:05:14;101059.25;;;3.97
18713;BMP280;9485;49.386;8.674;2023-02-26T21:11:00;101056.09;;;3.95
18713;BMP280;9485;49.386;8.674;2023-02-26T21:16:21;101056.56;;;3.93
18713;BMP280;9485;49.386;8.674;2023-02-26T21:21:44;101052.19;;;3.92
18713;BMP280;9485;49.386;8.674;2023-02-26T21:27:05;101058.66;;;3.89
18713;BMP280;9485;49.386;8.674;2023-02-26T21:32:25;101054.69;;;3.87
18713;BMP280;9485;49.386;8.674;2023-02-26T21:37:47;101065.56;;;3.85
18713;BMP280;9485;49.386;8.674;2023-02-26T21:43:08;101073.22;;;3.81
18713;BMP280;9485;49.386;8.674;2023-02-26T21:48:29;101069.66;;;3.80
18713;BMP280;9485;49.386;8.674;2023-02-26T21:53:51;101071.63;;;3.80
18713;BMP280;9485;49.386;8.674;2023-02-26T21:59:12;101079.69;;;3.78
18713;BMP280;9485;49.386;8.674;2023-02-26T22:04:33;101081.69;;;3.77
18713;BMP280;9485;49.386;8.674;2023-02-26T22:09:55;101081.69;;;3.77
18713;BMP280;9485;49.386;8.674;2023-02-26T22:15:16;101079.69;;;3.78
18713;BMP280;9485;49.386;8.674;2023-02-26T22:20:42;101084.47;;;3.77
18713;BMP280;9485;49.386;8.674;2023-02-26T22:26:04;101076.63;;;3.72
18713;BMP280;9485;49.386;8.674;2023-02-26T22:31:26;101091.81;;;3.71
18713;BMP280;9485;49.386;8.674;2023-02-26T22:36:48;101076.25;;;3.70
18713;BMP280;9485;49.386;8.674;2023-02-26T22:42:11;101094.22;;;3.69
18713;BMP280;9485;49.386;8.674;2023-02-26T22:47:32;101082.28;;;3.69
18713;BMP280;9485;49.386;8.674;2023-02-26T22:52:53;101087.44;;;3.70
18713;BMP280;9485;49.386;8.674;2023-02-26T22:58:15;101090.22;;;3.70
18713;BMP280;9485;49.386;8.674;2023-02-26T23:03:36;101074.28;;;3.71
18713;BMP280;9485;49.386;8.674;2023-02-26T23:08:57;101088.22;;;3.71
18713;BMP280;9485;49.386;8.674;2023-02-26T23:14:19;101071.13;;;3.69
18713;BMP280;9485;49.386;8.674;2023-02-26T23:19:40;101083.41;;;3.71
18713;BMP280;9485;49.386;8.674;2023-02-26T23:25:01;101081.00;;;3.73
18713;BMP280;9485;49.386;8.674;2023-02-26T23:30:23;101082.13;;;3.76
18713;BMP280;9485;49.386;8.674;2023-02-26T23:35:46;101070.34;;;3.69
18713;BMP280;9485;49.386;8.674;2023-02-26T23:41:07;101071.03;;;3.72
18713;BMP280;9485;49.386;8.674;2023-02-26T23:46:29;101077.38;;;3.73
18713;BMP280;9485;49.386;8.674;2023-02-26T23:51:49;101083.34;;;3.75
18713;BMP280;9485;49.386;8.674;2023-02-26T23:57:11;101083.34;;;3.75
